Grand Rapids, MI (49506)

10:11 PM EST on February 07, 2016 (GMT -0500)
Fisk Lake | | Change Station
CLOSE
Current Station
Personal Weather Station
Location: Grand Rapids, MI
Elevation: 741 ft
Nearby Weather Stations

Elev 741 ft 42.95 °N, 85.62 °W | Updated 3 seconds ago

Overcast
Overcast
39.4 °F
Feels Like 39 °F
N
0.0
Wind Variable Wind from South
Gusts 7.0 mph

Today
High -- | Low -- °F
--% Chance of Precip.
Yesterday
High -- | Low -- °F
Precip. -- in
Pressure 29.71 in
Visibility 10.0 miles
Clouds Few 2500 ft
Overcast 3500 ft
Windchill 39 °F
Dew Point 34 °F
Humidity 81%
Rainfall 0.00 in
Snow Depth Not available.
7:51 AM 6:02 PM
Waning Crescent, 0% visible
METAR KGRR 080253Z 21008KT 10SM FEW025 OVC035 04/00 A2969 RMK AO2 SLP060 T00390000 58008
Pressure 29.71 in
Visibility 10.0 miles
Clouds Few 2500 ft
Overcast 3500 ft
Windchill 39 °F
Dew Point 34 °F
Humidity 81%
Rainfall 0.00 in
Snow Depth Not available.
7:51 AM 6:02 PM
Waning Crescent, 0% visible
METAR KGRR 080253Z 21008KT 10SM FEW025 OVC035 04/00 A2969 RMK AO2 SLP060 T00390000 58008

10-Day Weather Forecast

Almanac

Astronomy

Feb. 07, 2016 Rise Set
Actual Time
Civil Twilight
Nautical Twilight
Astronomical Twilight
Moon
Length of Visible Light
Length of Day
Tomorrow will be .
, % of the Moon is Illuminated

Today's Extremes

State Highs State Lows

Community

WunderPhotos

Upload Photos

1,891,375 photos uploaded!

WunderBlog® & News

Nearby

Air Quality

  Air Quality AQ Index Pollutant
Not available.

Snow Depth

Station Depth Elevation

Earthquake Activity

City Distance Mag. Time & Date
Minimum magnitude displayed is 2.5.

Coastal Water Temperatures

Place Temperature

Stations

Nearby Weather Stations

Station Location Temp. Windchill Dew Point Humidity Wind Precip. Elev Updated Type
                   

Watches & Warnings

There are currently no watches in effect.